sensor_id;sensor_type;location;lat;lon;timestamp;pressure;altitude;pressure_sealevel;temperature;humidity
27210;BME280;14721;42.668;23.386;2023-06-04T00:00:17;95425.09;;;16.49;100.00
27210;BME280;14721;42.668;23.386;2023-06-04T00:02:42;95411.31;;;16.52;100.00
27210;BME280;14721;42.668;23.386;2023-06-04T00:05:08;95414.53;;;16.56;100.00
27210;BME280;14721;42.668;23.386;2023-06-04T00:07:34;95427.13;;;16.65;100.00
27210;BME280;14721;42.668;23.386;2023-06-04T00:09:59;95417.34;;;16.64;100.00
27210;BME280;14721;42.668;23.386;2023-06-04T00:12:25;95417.34;;;16.64;100.00
27210;BME280;14721;42.668;23.386;2023-06-04T00:14:51;95417.22;;;16.56;100.00
27210;BME280;14721;42.668;23.386;2023-06-04T00:17:17;95413.41;;;16.58;100.00
27210;BME280;14721;42.668;23.386;2023-06-04T00:19:42;95425.16;;;16.67;100.00
27210;BME280;14721;42.668;23.386;2023-06-04T00:22:08;95426.25;;;16.74;100.00
27210;BME280;14721;42.668;23.386;2023-06-04T00:24:37;95412.31;;;16.78;100.00
27210;BME280;14721;42.668;23.386;2023-06-04T00:27:03;95404.81;;;16.72;100.00
27210;BME280;14721;42.668;23.386;2023-06-04T00:29:28;95412.56;;;16.85;100.00
27210;BME280;14721;42.668;23.386;2023-06-04T00:31:57;95411.97;;;16.91;100.00
27210;BME280;14721;42.668;23.386;2023-06-04T00:34:23;95413.44;;;16.85;100.00
27210;BME280;14721;42.668;23.386;2023-06-04T00:36:48;95413.88;;;16.81;100.00
27210;BME280;14721;42.668;23.386;2023-06-04T00:39:14;95413.34;;;16.68;100.00
27210;BME280;14721;42.668;23.386;2023-06-04T00:41:39;95402.41;;;16.69;100.00
27210;BME280;14721;42.668;23.386;2023-06-04T00:44:06;95413.56;;;16.57;100.00
27210;BME280;14721;42.668;23.386;2023-06-04T00:46:32;95404.63;;;16.47;100.00
27210;BME280;14721;42.668;23.386;2023-06-04T00:48:59;95415.97;;;16.50;100.00
27210;BME280;14721;42.668;23.386;2023-06-04T00:51:25;95411.00;;;16.55;100.00
27210;BME280;14721;42.668;23.386;2023-06-04T00:53:52;95399.09;;;16.39;100.00
27210;BME280;14721;42.668;23.386;2023-06-04T00:56:18;95404.66;;;16.37;100.00
27210;BME280;14721;42.668;23.386;2023-06-04T00:58:45;95411.59;;;16.40;100.00
27210;BME280;14721;42.668;23.386;2023-06-04T01:01:29;95408.06;;;16.30;100.00
27210;BME280;14721;42.668;23.386;2023-06-04T01:04:00;95410.63;;;16.22;100.00
27210;BME280;14721;42.668;23.386;2023-06-04T01:06:31;95412.75;;;16.18;100.00
27210;BME280;14721;42.668;23.386;2023-06-04T01:08:59;95414.44;;;16.29;100.00
27210;BME280;14721;42.668;23.386;2023-06-04T01:11:36;95419.53;;;16.41;100.00
27210;BME280;14721;42.668;23.386;2023-06-04T01:14:03;95413.19;;;16.33;100.00
27210;BME280;14721;42.668;23.386;2023-06-04T01:16:35;95399.97;;;16.30;100.00
27210;BME280;14721;42.668;23.386;2023-06-04T01:19:16;95397.38;;;16.38;100.00
27210;BME280;14721;42.668;23.386;2023-06-04T01:21:50;95408.03;;;16.49;100.00
27210;BME280;14721;42.668;23.386;2023-06-04T01:24:21;95409.28;;;16.54;100.00
27210;BME280;14721;42.668;23.386;2023-06-04T01:26:51;95413.88;;;16.44;100.00
27210;BME280;14721;42.668;23.386;2023-06-04T01:29:17;95414.69;;;16.54;100.00
27210;BME280;14721;42.668;23.386;2023-06-04T01:31:43;95423.03;;;16.61;100.00
27210;BME280;14721;42.668;23.386;2023-06-04T01:34:08;95416.69;;;16.52;100.00
27210;BME280;14721;42.668;23.386;2023-06-04T01:36:34;95421.38;;;16.50;100.00
27210;BME280;14721;42.668;23.386;2023-06-04T01:39:01;95428.31;;;16.53;100.00
27210;BME280;14721;42.668;23.386;2023-06-04T01:41:27;95426.75;;;16.41;100.00
27210;BME280;14721;42.668;23.386;2023-06-04T01:43:53;95427.34;;;16.35;100.00
27210;BME280;14721;42.668;23.386;2023-06-04T01:46:19;95433.59;;;16.35;100.00
27210;BME280;14721;42.668;23.386;2023-06-04T01:48:44;95430.63;;;16.29;100.00
27210;BME280;14721;42.668;23.386;2023-06-04T01:51:14;95414.19;;;16.13;100.00
27210;BME280;14721;42.668;23.386;2023-06-04T01:53:39;95441.84;;;16.24;100.00
27210;BME280;14721;42.668;23.386;2023-06-04T01:56:05;95436.44;;;16.24;100.00
27210;BME280;14721;42.668;23.386;2023-06-04T01:58:32;95445.69;;;16.22;100.00
27210;BME280;14721;42.668;23.386;2023-06-04T02:00:59;95441.16;;;16.22;100.00
27210;BME280;14721;42.668;23.386;2023-06-04T02:03:28;95440.72;;;16.27;100.00
27210;BME280;14721;42.668;23.386;2023-06-04T02:05:57;95442.25;;;16.39;100.00
27210;BME280;14721;42.668;23.386;2023-06-04T02:08:23;95441.13;;;16.32;100.00
27210;BME280;14721;42.668;23.386;2023-06-04T02:10:51;95449.47;;;16.38;100.00
27210;BME280;14721;42.668;23.386;2023-06-04T02:13:17;95438.03;;;16.27;100.00
27210;BME280;14721;42.668;23.386;2023-06-04T02:15:42;95442.69;;;16.34;100.00
27210;BME280;14721;42.668;23.386;2023-06-04T02:18:17;95443.72;;;16.24;100.00
27210;BME280;14721;42.668;23.386;2023-06-04T02:20:47;95443.13;;;16.30;100.00
27210;BME280;14721;42.668;23.386;2023-06-04T02:23:23;95449.06;;;16.33;100.00
27210;BME280;14721;42.668;23.386;2023-06-04T02:25:50;95451.34;;;16.28;100.00
27210;BME280;14721;42.668;23.386;2023-06-04T02:28:16;95456.03;;;16.36;100.00
27210;BME280;14721;42.668;23.386;2023-06-04T02:30:44;95454.63;;;16.22;100.00
27210;BME280;14721;42.668;23.386;2023-06-04T02:33:11;95449.53;;;16.19;100.00
27210;BME280;14721;42.668;23.386;2023-06-04T02:35:37;95460.84;;;16.32;100.00
27210;BME280;14721;42.668;23.386;2023-06-04T02:38:02;95470.91;;;16.30;100.00
27210;BME280;14721;42.668;23.386;2023-06-04T02:40:28;95470.63;;;16.33;100.00
27210;BME280;14721;42.668;23.386;2023-06-04T02:42:55;95472.78;;;16.30;100.00
27210;BME280;14721;42.668;23.386;2023-06-04T02:45:22;95465.28;;;16.24;100.00
27210;BME280;14721;42.668;23.386;2023-06-04T02:47:48;95473.50;;;16.13;100.00
27210;BME280;14721;42.668;23.386;2023-06-04T02:50:14;95468.97;;;16.13;100.00
27210;BME280;14721;42.668;23.386;2023-06-04T02:52:41;95476.06;;;16.14;100.00
27210;BME280;14721;42.668;23.386;2023-06-04T02:55:07;95473.66;;;16.21;100.00
27210;BME280;14721;42.668;23.386;2023-06-04T02:57:34;95477.03;;;16.32;100.00
27210;BME280;14721;42.668;23.386;2023-06-04T03:00:00;95479.72;;;16.42;100.00
27210;BME280;14721;42.668;23.386;2023-06-04T03:02:26;95481.72;;;16.49;100.00
27210;BME280;14721;42.668;23.386;2023-06-04T03:04:53;95487.06;;;16.59;100.00
27210;BME280;14721;42.668;23.386;2023-06-04T03:07:21;95483.53;;;16.58;100.00
27210;BME280;14721;42.668;23.386;2023-06-04T03:09:49;95490.75;;;16.67;100.00
27210;BME280;14721;42.668;23.386;2023-06-04T03:12:15;95452.59;;;16.53;100.00
27210;BME280;14721;42.668;23.386;2023-06-04T03:14:40;95486.03;;;16.79;100.00
27210;BME280;14721;42.668;23.386;2023-06-04T03:17:06;95486.63;;;16.73;100.00
27210;BME280;14721;42.668;23.386;2023-06-04T03:19:40;95487.91;;;16.69;100.00
27210;BME280;14721;42.668;23.386;2023-06-04T03:22:08;95488.16;;;16.75;100.00
27210;BME280;14721;42.668;23.386;2023-06-04T03:24:40;95490.47;;;16.70;100.00
27210;BME280;14721;42.668;23.386;2023-06-04T03:27:08;95482.66;;;16.67;100.00
27210;BME280;14721;42.668;23.386;2023-06-04T03:29:35;95497.41;;;16.73;100.00
27210;BME280;14721;42.668;23.386;2023-06-04T03:32:02;95502.50;;;16.76;100.00
27210;BME280;14721;42.668;23.386;2023-06-04T03:34:28;95506.75;;;16.78;100.00
27210;BME280;14721;42.668;23.386;2023-06-04T03:36:56;95499.09;;;16.83;100.00
27210;BME280;14721;42.668;23.386;2023-06-04T03:39:23;95506.91;;;16.77;100.00
27210;BME280;14721;42.668;23.386;2023-06-04T03:41:49;95512.72;;;16.82;100.00
27210;BME280;14721;42.668;23.386;2023-06-04T03:44:16;95505.78;;;16.79;100.00
27210;BME280;14721;42.668;23.386;2023-06-04T03:46:43;95489.63;;;16.60;100.00
27210;BME280;14721;42.668;23.386;2023-06-04T03:49:14;95498.41;;;16.72;100.00
27210;BME280;14721;42.668;23.386;2023-06-04T03:51:53;95508.72;;;16.86;100.00
27210;BME280;14721;42.668;23.386;2023-06-04T03:54:21;95510.97;;;16.90;100.00
27210;BME280;14721;42.668;23.386;2023-06-04T03:56:47;95507.31;;;16.92;100.00
27210;BME280;14721;42.668;23.386;2023-06-04T03:59:13;95517.81;;;16.95;100.00
27210;BME280;14721;42.668;23.386;2023-06-04T04:01:38;95514.25;;;16.94;100.00
27210;BME280;14721;42.668;23.386;2023-06-04T04:04:04;95524.91;;;16.96;100.00
27210;BME280;14721;42.668;23.386;2023-06-04T04:06:30;95526.56;;;17.06;100.00
27210;BME280;14721;42.668;23.386;2023-06-04T04:08:56;95533.63;;;17.17;100.00
27210;BME280;14721;42.668;23.386;2023-06-04T04:11:23;95529.53;;;17.13;100.00
27210;BME280;14721;42.668;23.386;2023-06-04T04:13:49;95527.94;;;17.20;100.00
27210;BME280;14721;42.668;23.386;2023-06-04T04:16:15;95525.69;;;17.15;100.00
27210;BME280;14721;42.668;23.386;2023-06-04T04:18:43;95529.56;;;17.03;100.00
27210;BME280;14721;42.668;23.386;2023-06-04T04:21:10;95531.09;;;17.06;100.00
27210;BME280;14721;42.668;23.386;2023-06-04T04:23:38;95535.75;;;17.13;100.00
27210;BME280;14721;42.668;23.386;2023-06-04T04:26:05;95537.56;;;17.22;100.00
27210;BME280;14721;42.668;23.386;2023-06-04T04:28:32;95537.19;;;17.17;100.00
27210;BME280;14721;42.668;23.386;2023-06-04T04:31:00;95537.72;;;17.21;100.00
27210;BME280;14721;42.668;23.386;2023-06-04T04:33:28;95543.09;;;17.30;100.00
27210;BME280;14721;42.668;23.386;2023-06-04T04:35:58;95543.06;;;17.40;100.00
27210;BME280;14721;42.668;23.386;2023-06-04T04:38:27;95539.81;;;17.27;100.00
27210;BME280;14721;42.668;23.386;2023-06-04T04:40:54;95540.72;;;17.18;100.00
27210;BME280;14721;42.668;23.386;2023-06-04T04:43:34;95539.38;;;17.31;100.00
27210;BME280;14721;42.668;23.386;2023-06-04T04:46:00;95526.91;;;17.57;100.00
27210;BME280;14721;42.668;23.386;2023-06-04T04:48:25;95525.22;;;17.56;100.00
27210;BME280;14721;42.668;23.386;2023-06-04T04:50:52;95529.91;;;17.81;100.00
27210;BME280;14721;42.668;23.386;2023-06-04T04:53:17;95527.28;;;17.89;99.42
27210;BME280;14721;42.668;23.386;2023-06-04T04:55:43;95514.28;;;17.75;98.89
27210;BME280;14721;42.668;23.386;2023-06-04T04:58:09;95537.16;;;17.98;98.43
27210;BME280;14721;42.668;23.386;2023-06-04T05:00:35;95537.72;;;18.02;98.68
27210;BME280;14721;42.668;23.386;2023-06-04T05:03:00;95543.97;;;18.02;97.98
27210;BME280;14721;42.668;23.386;2023-06-04T05:05:26;95531.13;;;18.04;98.43
27210;BME280;14721;42.668;23.386;2023-06-04T05:07:51;95542.81;;;18.22;97.60
27210;BME280;14721;42.668;23.386;2023-06-04T05:10:17;95545.31;;;18.16;96.68
27210;BME280;14721;42.668;23.386;2023-06-04T05:12:53;95547.91;;;18.08;95.56
27210;BME280;14721;42.668;23.386;2023-06-04T05:15:20;95548.53;;;18.02;96.26
27210;BME280;14721;42.668;23.386;2023-06-04T05:17:47;95551.38;;;18.00;96.59
27210;BME280;14721;42.668;23.386;2023-06-04T05:20:15;95550.31;;;17.93;97.86
27210;BME280;14721;42.668;23.386;2023-06-04T05:22:41;95528.41;;;17.69;98.61
27210;BME280;14721;42.668;23.386;2023-06-04T05:25:08;95529.13;;;17.71;98.56
27210;BME280;14721;42.668;23.386;2023-06-04T05:27:35;95517.75;;;17.68;97.86
27210;BME280;14721;42.668;23.386;2023-06-04T05:30:02;95549.59;;;17.91;97.16
27210;BME280;14721;42.668;23.386;2023-06-04T05:32:28;95544.59;;;17.96;95.82
27210;BME280;14721;42.668;23.386;2023-06-04T05:34:58;95558.47;;;18.01;95.28
27210;BME280;14721;42.668;23.386;2023-06-04T05:37:27;95547.75;;;18.09;95.01
27210;BME280;14721;42.668;23.386;2023-06-04T05:39:58;95566.31;;;18.22;92.86
27210;BME280;14721;42.668;23.386;2023-06-04T05:42:23;95559.69;;;18.34;90.95
27210;BME280;14721;42.668;23.386;2023-06-04T05:44:50;95570.56;;;18.24;89.09
27210;BME280;14721;42.668;23.386;2023-06-04T05:47:16;95568.00;;;18.23;89.54
27210;BME280;14721;42.668;23.386;2023-06-04T05:49:42;95564.44;;;18.22;89.81
27210;BME280;14721;42.668;23.386;2023-06-04T05:52:08;95572.50;;;18.32;90.06
27210;BME280;14721;42.668;23.386;2023-06-04T05:54:33;95574.00;;;18.44;89.41
27210;BME280;14721;42.668;23.386;2023-06-04T05:57:02;95571.38;;;18.52;88.15
27210;BME280;14721;42.668;23.386;2023-06-04T05:59:31;95586.91;;;18.50;88.97
27210;BME280;14721;42.668;23.386;2023-06-04T06:01:57;95586.59;;;18.35;89.61
27210;BME280;14721;42.668;23.386;2023-06-04T06:04:23;95572.31;;;18.43;89.21
27210;BME280;14721;42.668;23.386;2023-06-04T06:06:49;95601.03;;;18.61;88.51
27210;BME280;14721;42.668;23.386;2023-06-04T06:09:15;95602.69;;;18.54;87.64
27210;BME280;14721;42.668;23.386;2023-06-04T06:11:41;95605.22;;;18.56;87.42
27210;BME280;14721;42.668;23.386;2023-06-04T06:14:07;95602.44;;;18.48;87.33
27210;BME280;14721;42.668;23.386;2023-06-04T06:16:33;95607.19;;;18.46;87.87
27210;BME280;14721;42.668;23.386;2023-06-04T06:19:00;95604.00;;;18.50;87.37
27210;BME280;14721;42.668;23.386;2023-06-04T06:21:26;95605.94;;;18.58;87.73
27210;BME280;14721;42.668;23.386;2023-06-04T06:23:53;95601.72;;;18.81;86.52
27210;BME280;14721;42.668;23.386;2023-06-04T06:26:19;95607.75;;;18.93;84.45
27210;BME280;14721;42.668;23.386;2023-06-04T06:28:45;95607.44;;;18.78;84.68
27210;BME280;14721;42.668;23.386;2023-06-04T06:31:11;95607.84;;;18.83;83.72
27210;BME280;14721;42.668;23.386;2023-06-04T06:33:37;95605.75;;;18.77;84.36
27210;BME280;14721;42.668;23.386;2023-06-04T06:36:07;95604.16;;;18.66;85.05
27210;BME280;14721;42.668;23.386;2023-06-04T06:38:33;95610.47;;;18.93;85.60
27210;BME280;14721;42.668;23.386;2023-06-04T06:40:59;95607.00;;;19.08;84.12
27210;BME280;14721;42.668;23.386;2023-06-04T06:43:25;95602.34;;;19.36;83.62
27210;BME280;14721;42.668;23.386;2023-06-04T06:45:51;95601.59;;;19.51;82.13
27210;BME280;14721;42.668;23.386;2023-06-04T06:48:17;95610.22;;;19.55;81.20
27210;BME280;14721;42.668;23.386;2023-06-04T06:50:43;95608.16;;;19.49;80.43
27210;BME280;14721;42.668;23.386;2023-06-04T06:53:08;95588.50;;;19.21;80.73
27210;BME280;14721;42.668;23.386;2023-06-04T06:55:34;95612.47;;;19.34;80.75
27210;BME280;14721;42.668;23.386;2023-06-04T06:57:59;95609.97;;;19.40;80.00
27210;BME280;14721;42.668;23.386;2023-06-04T07:00:26;95619.44;;;19.62;80.13
27210;BME280;14721;42.668;23.386;2023-06-04T07:02:52;95617.31;;;19.48;79.61
27210;BME280;14721;42.668;23.386;2023-06-04T07:05:18;95612.38;;;19.43;80.53
27210;BME280;14721;42.668;23.386;2023-06-04T07:07:43;95620.41;;;19.53;80.58
27210;BME280;14721;42.668;23.386;2023-06-04T07:10:09;95621.69;;;19.41;80.81
27210;BME280;14721;42.668;23.386;2023-06-04T07:12:35;95609.13;;;19.40;81.27
27210;BME280;14721;42.668;23.386;2023-06-04T07:15:01;95625.22;;;19.67;81.16
27210;BME280;14721;42.668;23.386;2023-06-04T07:17:26;95627.97;;;19.75;80.49
27210;BME280;14721;42.668;23.386;2023-06-04T07:19:52;95631.53;;;19.75;79.92
27210;BME280;14721;42.668;23.386;2023-06-04T07:22:17;95634.44;;;19.82;80.46
27210;BME280;14721;42.668;23.386;2023-06-04T07:24:43;95642.16;;;19.69;81.08
27210;BME280;14721;42.668;23.386;2023-06-04T07:27:12;95635.56;;;19.71;81.66
27210;BME280;14721;42.668;23.386;2023-06-04T07:29:38;95642.72;;;19.72;81.91
27210;BME280;14721;42.668;23.386;2023-06-04T07:32:05;95636.50;;;19.88;80.80
27210;BME280;14721;42.668;23.386;2023-06-04T07:34:32;95638.81;;;20.08;80.49
27210;BME280;14721;42.668;23.386;2023-06-04T07:36:57;95639.47;;;20.44;79.66
27210;BME280;14721;42.668;23.386;2023-06-04T07:39:23;95645.94;;;20.67;78.88
27210;BME280;14721;42.668;23.386;2023-06-04T07:41:48;95645.25;;;20.57;77.85
27210;BME280;14721;42.668;23.386;2023-06-04T07:44:14;95646.09;;;20.58;77.42
27210;BME280;14721;42.668;23.386;2023-06-04T07:46:40;95651.38;;;20.67;78.12
27210;BME280;14721;42.668;23.386;2023-06-04T07:49:05;95652.25;;;20.92;77.00
27210;BME280;14721;42.668;23.386;2023-06-04T07:51:34;95644.44;;;20.73;76.90
27210;BME280;14721;42.668;23.386;2023-06-04T07:54:00;95653.47;;;20.89;76.89
27210;BME280;14721;42.668;23.386;2023-06-04T07:56:27;95645.34;;;21.13;76.34
27210;BME280;14721;42.668;23.386;2023-06-04T07:58:52;95656.22;;;21.05;75.12
27210;BME280;14721;42.668;23.386;2023-06-04T08:01:18;95659.41;;;21.41;74.68
27210;BME280;14721;42.668;23.386;2023-06-04T08:03:43;95670.81;;;21.36;73.83
27210;BME280;14721;42.668;23.386;2023-06-04T08:06:09;95648.75;;;21.23;74.82
27210;BME280;14721;42.668;23.386;2023-06-04T08:08:35;95660.63;;;21.38;73.30
27210;BME280;14721;42.668;23.386;2023-06-04T08:11:01;95666.03;;;21.54;73.09
27210;BME280;14721;42.668;23.386;2023-06-04T08:13:26;95658.72;;;21.63;72.97
27210;BME280;14721;42.668;23.386;2023-06-04T08:15:52;95661.25;;;21.88;73.02
27210;BME280;14721;42.668;23.386;2023-06-04T08:18:17;95667.84;;;22.02;72.34
27210;BME280;14721;42.668;23.386;2023-06-04T08:20:43;95652.88;;;22.06;70.44
27210;BME280;14721;42.668;23.386;2023-06-04T08:23:08;95666.31;;;21.99;71.70
27210;BME280;14721;42.668;23.386;2023-06-04T08:25:33;95661.78;;;21.76;70.95
27210;BME280;14721;42.668;23.386;2023-06-04T08:27:59;95665.03;;;21.39;72.31
27210;BME280;14721;42.668;23.386;2023-06-04T08:30:25;95652.81;;;21.35;73.55
27210;BME280;14721;42.668;23.386;2023-06-04T08:32:53;95668.25;;;21.35;73.16
27210;BME280;14721;42.668;23.386;2023-06-04T08:35:18;95666.41;;;21.35;73.82
27210;BME280;14721;42.668;23.386;2023-06-04T08:37:44;95668.44;;;21.41;73.16
27210;BME280;14721;42.668;23.386;2023-06-04T08:40:10;95668.63;;;21.16;73.33
27210;BME280;14721;42.668;23.386;2023-06-04T08:42:42;95675.84;;;20.83;74.51
27210;BME280;14721;42.668;23.386;2023-06-04T08:45:11;95678.56;;;20.83;74.39
27210;BME280;14721;42.668;23.386;2023-06-04T08:47:44;95674.09;;;20.58;74.87
27210;BME280;14721;42.668;23.386;2023-06-04T08:50:16;95664.28;;;20.73;75.71
27210;BME280;14721;42.668;23.386;2023-06-04T08:52:42;95686.72;;;20.83;74.76
27210;BME280;14721;42.668;23.386;2023-06-04T08:55:11;95684.59;;;21.03;74.29
27210;BME280;14721;42.668;23.386;2023-06-04T08:57:39;95688.13;;;21.11;73.55
27210;BME280;14721;42.668;23.386;2023-06-04T09:00:07;95692.41;;;21.46;73.03
27210;BME280;14721;42.668;23.386;2023-06-04T09:02:36;95685.06;;;21.62;72.15
27210;BME280;14721;42.668;23.386;2023-06-04T09:05:06;95704.09;;;21.62;69.70
27210;BME280;14721;42.668;23.386;2023-06-04T09:07:36;95688.81;;;21.21;69.70
27210;BME280;14721;42.668;23.386;2023-06-04T09:10:02;95686.78;;;21.23;69.76
27210;BME280;14721;42.668;23.386;2023-06-04T09:12:29;95700.72;;;21.52;68.82
27210;BME280;14721;42.668;23.386;2023-06-04T09:14:55;95688.66;;;21.79;66.80
27210;BME280;14721;42.668;23.386;2023-06-04T09:17:22;95704.09;;;21.70;67.10
27210;BME280;14721;42.668;23.386;2023-06-04T09:19:48;95697.81;;;21.62;67.08
27210;BME280;14721;42.668;23.386;2023-06-04T09:22:15;95694.78;;;21.81;67.06
27210;BME280;14721;42.668;23.386;2023-06-04T09:24:43;95708.94;;;22.23;65.81
27210;BME280;14721;42.668;23.386;2023-06-04T09:27:14;95698.75;;;22.17;65.00
27210;BME280;14721;42.668;23.386;2023-06-04T09:29:40;95691.59;;;22.16;65.29
27210;BME280;14721;42.668;23.386;2023-06-04T09:32:13;95694.75;;;22.36;64.75
27210;BME280;14721;42.668;23.386;2023-06-04T09:34:39;95690.28;;;22.59;62.52
27210;BME280;14721;42.668;23.386;2023-06-04T09:37:16;95697.00;;;22.32;62.95
27210;BME280;14721;42.668;23.386;2023-06-04T09:39:56;95698.16;;;22.46;63.17
27210;BME280;14721;42.668;23.386;2023-06-04T09:42:25;95705.94;;;22.57;62.98
27210;BME280;14721;42.668;23.386;2023-06-04T09:44:50;95692.28;;;22.65;63.38
27210;BME280;14721;42.668;23.386;2023-06-04T09:47:16;95701.66;;;22.93;61.75
27210;BME280;14721;42.668;23.386;2023-06-04T09:49:45;95696.25;;;23.38;61.71
27210;BME280;14721;42.668;23.386;2023-06-04T09:52:12;95701.00;;;23.58;59.59
27210;BME280;14721;42.668;23.386;2023-06-04T09:54:41;95696.59;;;23.57;60.25
27210;BME280;14721;42.668;23.386;2023-06-04T09:57:17;95684.13;;;24.00;58.95
27210;BME280;14721;42.668;23.386;2023-06-04T09:59:49;95690.41;;;24.44;57.66
27210;BME280;14721;42.668;23.386;2023-06-04T10:02:20;95695.13;;;24.50;57.36
27210;BME280;14721;42.668;23.386;2023-06-04T10:04:53;95686.22;;;23.75;57.87
27210;BME280;14721;42.668;23.386;2023-06-04T10:07:25;95693.63;;;24.04;57.56
27210;BME280;14721;42.668;23.386;2023-06-04T10:09:55;95687.91;;;24.28;58.43
27210;BME280;14721;42.668;23.386;2023-06-04T10:12:26;95675.84;;;24.66;56.60
27210;BME280;14721;42.668;23.386;2023-06-04T10:15:13;95673.00;;;24.60;56.78
27210;BME280;14721;42.668;23.386;2023-06-04T10:17:39;95671.50;;;24.57;55.57
27210;BME280;14721;42.668;23.386;2023-06-04T10:20:09;95675.66;;;24.39;56.35
27210;BME280;14721;42.668;23.386;2023-06-04T10:22:36;95654.91;;;24.73;56.66
27210;BME280;14721;42.668;23.386;2023-06-04T10:25:01;95661.41;;;24.72;54.72
27210;BME280;14721;42.668;23.386;2023-06-04T10:27:31;95681.69;;;24.34;55.29
27210;BME280;14721;42.668;23.386;2023-06-04T10:29:57;95676.38;;;23.52;57.48
27210;BME280;14721;42.668;23.386;2023-06-04T10:32:27;95675.03;;;23.48;57.69
27210;BME280;14721;42.668;23.386;2023-06-04T10:34:53;95671.09;;;23.50;58.72
27210;BME280;14721;42.668;23.386;2023-06-04T10:37:23;95665.34;;;23.45;58.23
27210;BME280;14721;42.668;23.386;2023-06-04T10:39:56;95669.28;;;23.94;57.58
27210;BME280;14721;42.668;23.386;2023-06-04T10:42:23;95672.06;;;24.53;54.74
27210;BME280;14721;42.668;23.386;2023-06-04T10:44:50;95665.56;;;24.25;55.50
27210;BME280;14721;42.668;23.386;2023-06-04T10:47:23;95667.75;;;24.44;55.91
27210;BME280;14721;42.668;23.386;2023-06-04T10:49:50;95666.78;;;24.66;55.54
27210;BME280;14721;42.668;23.386;2023-06-04T10:52:17;95674.59;;;24.40;55.22
27210;BME280;14721;42.668;23.386;2023-06-04T10:54:43;95655.44;;;23.81;56.35
27210;BME280;14721;42.668;23.386;2023-06-04T10:57:14;95641.50;;;23.76;57.21
27210;BME280;14721;42.668;23.386;2023-06-04T10:59:41;95659.94;;;23.97;57.06
27210;BME280;14721;42.668;23.386;2023-06-04T11:02:07;95636.47;;;23.88;55.17
27210;BME280;14721;42.668;23.386;2023-06-04T11:04:33;95665.91;;;23.92;56.60
27210;BME280;14721;42.668;23.386;2023-06-04T11:07:03;95659.47;;;23.71;57.26
27210;BME280;14721;42.668;23.386;2023-06-04T11:09:30;95647.63;;;23.64;57.61
27210;BME280;14721;42.668;23.386;2023-06-04T11:11:59;95666.94;;;23.40;56.57
27210;BME280;14721;42.668;23.386;2023-06-04T11:14:25;95657.41;;;23.36;58.44
27210;BME280;14721;42.668;23.386;2023-06-04T11:16:51;95643.41;;;23.39;58.52
27210;BME280;14721;42.668;23.386;2023-06-04T11:19:17;95657.91;;;23.54;58.15
27210;BME280;14721;42.668;23.386;2023-06-04T11:21:43;95666.91;;;23.62;58.33
27210;BME280;14721;42.668;23.386;2023-06-04T11:24:09;95664.03;;;23.41;58.47
27210;BME280;14721;42.668;23.386;2023-06-04T11:26:37;95662.03;;;23.35;59.03
27210;BME280;14721;42.668;23.386;2023-06-04T11:29:07;95661.06;;;23.65;58.65
27210;BME280;14721;42.668;23.386;2023-06-04T11:31:43;95663.88;;;23.72;58.66
27210;BME280;14721;42.668;23.386;2023-06-04T11:34:10;95659.09;;;23.74;58.68
27210;BME280;14721;42.668;23.386;2023-06-04T11:36:38;95658.72;;;23.62;57.90
27210;BME280;14721;42.668;23.386;2023-06-04T11:39:04;95657.59;;;23.34;59.34
27210;BME280;14721;42.668;23.386;2023-06-04T11:41:35;95663.03;;;23.34;59.78
27210;BME280;14721;42.668;23.386;2023-06-04T11:44:04;95667.66;;;23.34;59.92
27210;BME280;14721;42.668;23.386;2023-06-04T11:46:32;95662.84;;;23.36;59.84
27210;BME280;14721;42.668;23.386;2023-06-04T11:48:58;95660.03;;;23.29;58.94
27210;BME280;14721;42.668;23.386;2023-06-04T11:51:24;95669.81;;;23.16;59.40
27210;BME280;14721;42.668;23.386;2023-06-04T11:53:49;95658.97;;;22.85;61.33
27210;BME280;14721;42.668;23.386;2023-06-04T11:56:16;95649.28;;;22.83;61.74
27210;BME280;14721;42.668;23.386;2023-06-04T11:58:42;95672.47;;;22.79;61.47
27210;BME280;14721;42.668;23.386;2023-06-04T12:01:09;95644.16;;;22.49;62.71
27210;BME280;14721;42.668;23.386;2023-06-04T12:03:39;95659.84;;;22.47;62.81
27210;BME280;14721;42.668;23.386;2023-06-04T12:06:20;95652.19;;;22.51;63.45
27210;BME280;14721;42.668;23.386;2023-06-04T12:08:54;95661.53;;;22.56;62.74
27210;BME280;14721;42.668;23.386;2023-06-04T12:11:40;95677.44;;;22.37;63.55
27210;BME280;14721;42.668;23.386;2023-06-04T12:14:07;95684.28;;;22.24;63.85
27210;BME280;14721;42.668;23.386;2023-06-04T12:16:36;95669.91;;;21.92;64.25
27210;BME280;14721;42.668;23.386;2023-06-04T12:19:09;95680.59;;;22.01;64.94
27210;BME280;14721;42.668;23.386;2023-06-04T12:21:37;95675.44;;;22.14;64.91
27210;BME280;14721;42.668;23.386;2023-06-04T12:26:37;95681.63;;;22.00;64.72
27210;BME280;14721;42.668;23.386;2023-06-04T12:29:16;95678.94;;;21.84;65.35
27210;BME280;14721;42.668;23.386;2023-06-04T12:31:44;95678.44;;;21.81;65.31
27210;BME280;14721;42.668;23.386;2023-06-04T12:34:12;95675.41;;;21.76;65.32
27210;BME280;14721;42.668;23.386;2023-06-04T12:36:38;95665.53;;;21.59;66.16
27210;BME280;14721;42.668;23.386;2023-06-04T12:39:05;95674.03;;;21.56;66.29
27210;BME280;14721;42.668;23.386;2023-06-04T12:41:33;95665.03;;;21.39;66.45
27210;BME280;14721;42.668;23.386;2023-06-04T12:44:00;95672.31;;;21.47;66.39
27210;BME280;14721;42.668;23.386;2023-06-04T12:46:27;95670.66;;;21.46;66.75
27210;BME280;14721;42.668;23.386;2023-06-04T12:48:53;95667.94;;;21.54;66.20